Time;durP1;ratioP1;P1;durP2;ratioP2;P2;SDS_P1;SDS_P2;PMS_P1;PMS_P2;Temp;Humidity;BMP_temperature;BMP_pressure;BME280_temperature;BME280_humidity;BME280_pressure;Samples;Min_cycle;Max_cycle;Signal;HPM_P1;HPM_P2
2022/11/22 00:00:26;;;;;;;5.87;2.70;;;;;;;2.49;82.77;94777.63;1650618;87;21533;-71
2022/11/22 00:02:55;;;;;;;4.03;2.57;;;;;;;2.40;82.79;94778.96;1650431;87;21065;-71
2022/11/22 00:05:21;;;;;;;4.00;2.60;;;;;;;2.34;82.97;94774.63;1650730;87;21053;-71
2022/11/22 00:07:48;;;;;;;4.40;2.97;;;;;;;2.32;83.44;94776.36;1638954;88;21097;-71
2022/11/22 00:10:15;;;;;;;5.33;2.70;;;;;;;2.28;82.99;94772.02;1650704;87;21497;-71
2022/11/22 00:12:42;;;;;;;5.17;2.70;;;;;;;2.24;83.66;94774.17;1650319;87;21096;-71
2022/11/22 00:15:11;;;;;;;3.67;2.50;;;;;;;2.25;83.86;94775.92;1650407;87;21081;-71
2022/11/22 00:17:38;;;;;;;5.10;3.20;;;;;;;2.20;83.54;94767.69;1650477;87;21057;-71
2022/11/22 00:20:07;;;;;;;6.37;3.00;;;;;;;2.18;83.76;94769.41;1638904;87;21476;-71
2022/11/22 00:22:34;;;;;;;5.27;3.27;;;;;;;2.19;83.84;94767.23;1638837;87;21069;-70
2022/11/22 00:25:00;;;;;;;4.13;2.87;;;;;;;2.22;84.27;94774.63;1638867;87;21065;-70
2022/11/22 00:27:27;;;;;;;5.40;3.10;;;;;;;2.26;84.31;94771.58;1638857;88;21070;-69
2022/11/22 00:29:54;;;;;;;5.60;3.37;;;;;;;2.27;84.06;94774.19;1650614;87;21032;-70
2022/11/22 00:32:21;;;;;;;4.47;3.17;;;;;;;2.16;83.82;94774.16;1650619;87;21142;-70
2022/11/22 00:34:47;;;;;;;3.47;2.47;;;;;;;2.14;84.02;94773.73;1650598;87;20998;-70
2022/11/22 00:37:14;;;;;;;2.93;2.30;;;;;;;2.12;83.97;94779.39;1650681;87;21041;-70
2022/11/22 00:39:40;;;;;;;6.17;2.70;;;;;;;2.10;84.18;94781.98;1650612;87;21024;-70
2022/11/22 00:42:07;;;;;;;5.37;3.20;;;;;;;1.99;83.78;94784.12;1681585;85;21466;-70
2022/11/22 00:44:34;;;;;;;5.83;2.70;;;;;;;2.06;84.96;94788.48;1691432;84;21003;-69
2022/11/22 00:47:00;;;;;;;3.67;2.43;;;;;;;2.09;84.72;94788.06;1691370;84;21047;-69
2022/11/22 00:49:27;;;;;;;3.93;2.57;;;;;;;2.09;84.72;94781.56;1691603;84;21525;-69
2022/11/22 00:51:54;;;;;;;3.47;2.47;;;;;;;2.04;83.91;94782.40;1641892;87;21034;-69
2022/11/22 00:54:20;;;;;;;3.27;2.13;;;;;;;1.99;84.32;94784.12;1632312;88;21055;-69
2022/11/22 00:56:47;;;;;;;4.73;2.23;;;;;;;1.97;84.23;94780.69;1641495;87;21011;-69
2022/11/22 00:59:13;;;;;;;3.30;1.97;;;;;;;1.86;83.90;94784.11;1627171;88;21576;-69
2022/11/22 01:01:40;;;;;;;4.83;2.53;;;;;;;1.69;83.46;94789.30;1641225;87;21098;-69
2022/11/22 01:04:07;;;;;;;5.67;2.43;;;;;;;1.52;83.11;94787.08;1627615;88;21030;-69
2022/11/22 01:06:33;;;;;;;3.57;2.37;;;;;;;1.34;83.10;94781.39;1641662;87;21082;-69
2022/11/22 01:09:00;;;;;;;3.70;1.93;;;;;;;1.19;83.16;94781.33;1627678;88;20987;-69
2022/11/22 01:11:28;;;;;;;3.30;1.93;;;;;;;1.10;83.77;94786.03;1641376;87;21812;-69
2022/11/22 01:13:55;;;;;;;3.63;2.33;;;;;;;1.08;84.22;94786.45;1627709;88;21551;-69
2022/11/22 01:16:22;;;;;;;5.20;2.33;;;;;;;1.06;84.33;94788.20;1641667;87;21596;-69
2022/11/22 01:18:49;;;;;;;4.20;2.20;;;;;;;1.07;84.80;94795.98;1627299;88;21545;-69
2022/11/22 01:21:16;;;;;;;3.93;2.07;;;;;;;1.12;85.28;94795.15;1641465;87;21090;-69
2022/11/22 01:23:43;;;;;;;2.80;1.90;;;;;;;1.16;85.24;94799.08;1627632;88;21055;-69
2022/11/22 01:26:11;;;;;;;2.73;2.10;;;;;;;1.21;85.17;94803.86;1641781;87;21575;-69
2022/11/22 01:28:39;;;;;;;3.03;2.17;;;;;;;1.25;85.16;94800.83;1627178;88;21130;-69
2022/11/22 01:31:05;;;;;;;5.17;2.13;;;;;;;1.12;84.33;94803.80;1641555;87;21050;-69
2022/11/22 01:33:32;;;;;;;4.13;3.03;;;;;;;0.98;84.55;94808.95;1627308;88;21193;-69
2022/11/22 01:35:58;;;;;;;3.77;2.03;;;;;;;0.92;84.60;94810.63;1641689;87;21038;-68
2022/11/22 01:38:25;;;;;;;3.40;1.93;;;;;;;0.84;84.57;94810.59;1627569;88;21580;-68
2022/11/22 01:40:53;;;;;;;5.87;3.50;;;;;;;0.82;85.25;94813.59;1643756;85;21082;-68
2022/11/22 01:43:25;;;;;;;4.80;2.67;;;;;;;0.80;85.52;94816.17;1634700;88;21022;-68
2022/11/22 01:45:55;;;;;;;6.35;2.25;;;;;;;0.89;85.64;94819.27;1643541;87;21030;-69
2022/11/22 01:48:34;;;;;;;3.50;1.67;;;;;;;0.81;85.30;94825.72;1643714;87;21563;-68
2022/11/22 01:51:14;;;;;;;3.90;2.23;;;;;;;0.73;85.04;94829.11;1643858;87;21473;-68
2022/11/22 01:53:41;;;;;;;7.30;4.23;;;;;;;0.64;85.45;94835.98;1643891;87;21082;-68
2022/11/22 01:56:12;;;;;;;11.90;6.67;;;;;;;0.57;86.17;94833.33;1643738;87;21050;-69
2022/11/22 01:58:42;;;;;;;10.40;5.77;;;;;;;0.46;86.94;94838.45;1644236;87;21053;-70
2022/11/22 02:01:09;;;;;;;11.93;6.47;;;;;;;0.50;86.64;94841.92;1643736;87;21061;-69
2022/11/22 02:03:40;;;;;;;11.20;6.67;;;;;;;0.53;86.57;94844.13;1643558;87;21049;-69
2022/11/22 02:06:07;;;;;;;9.53;5.63;;;;;;;0.54;86.87;94846.30;1643747;87;21037;-69
2022/11/22 02:08:51;;;;;;;9.37;5.70;;;;;;;0.59;86.94;94845.90;1643869;87;21158;-69
2022/11/22 02:11:20;;;;;;;8.53;4.60;;;;;;;0.64;87.01;94841.17;1643943;87;21037;-69
2022/11/22 02:13:49;;;;;;;7.13;4.37;;;;;;;0.63;86.26;94844.64;1643488;87;21125;-70
2022/11/22 02:16:16;;;;;;;8.17;4.90;;;;;;;0.56;86.05;94836.80;1619883;87;21496;-69
2022/11/22 02:18:43;;;;;;;8.57;4.57;;;;;;;0.52;85.91;94838.92;1643329;87;21034;-69
2022/11/22 02:21:10;;;;;;;2.30;1.23;;;;;;;0.46;86.07;94842.34;1643903;87;21021;-69
2022/11/22 02:24:12;;;;;;;1.60;1.30;;;;;;;0.46;86.20;94838.88;1643486;87;21109;-70
2022/11/22 02:26:38;;;;;;;4.97;2.33;;;;;;;0.40;86.21;94841.87;1643662;87;21099;-68
2022/11/22 02:29:07;;;;;;;11.17;5.47;;;;;;;0.38;87.08;94843.58;1643426;87;21014;-68
2022/11/22 02:31:44;;;;;;;10.43;5.00;;;;;;;0.41;86.98;94846.19;1643719;87;21042;-69
2022/11/22 02:34:12;;;;;;;3.13;2.20;;;;;;;0.40;86.74;94846.17;1643800;87;21034;-68
2022/11/22 02:36:46;;;;;;;3.23;2.17;;;;;;;0.35;86.48;94843.96;1643647;87;21022;-69
2022/11/22 02:39:17;;;;;;;3.23;1.77;;;;;;;0.27;86.30;94847.79;1643715;87;21046;-69
2022/11/22 02:41:44;;;;;;;3.10;1.20;;;;;;;0.32;87.17;94842.64;1642864;87;21077;-69
2022/11/22 02:44:12;;;;;;;1.37;1.17;;;;;;;0.24;86.21;94843.88;1641414;87;21038;-69
2022/11/22 02:46:52;;;;;;;1.43;1.00;;;;;;;0.29;87.40;94849.98;1641385;87;21006;-69
2022/11/22 02:49:22;;;;;;;2.17;1.37;;;;;;;0.30;86.64;94845.22;1641184;87;21065;-69
2022/11/22 02:51:49;;;;;;;4.70;2.30;;;;;;;0.21;86.17;94839.53;1641371;87;21014;-69
2022/11/22 02:54:17;;;;;;;7.73;4.33;;;;;;;0.10;86.29;94838.98;1641240;87;21101;-69
2022/11/22 02:56:44;;;;;;;4.07;2.17;;;;;;;0.04;86.37;94841.09;1641325;87;21085;-69
2022/11/22 02:59:11;;;;;;;6.37;3.33;;;;;;;-0.02;86.23;94843.22;1641158;87;21038;-69
2022/11/22 03:01:38;;;;;;;18.13;9.77;;;;;;;-0.01;86.92;94845.38;1641442;87;21026;-69
2022/11/22 03:04:05;;;;;;;5.63;3.53;;;;;;;-0.04;87.21;94853.12;1641441;87;21516;-69
2022/11/22 03:06:32;;;;;;;4.47;3.10;;;;;;;0.00;87.55;94854.91;1641305;87;21523;-68
2022/11/22 03:08:58;;;;;;;3.90;2.13;;;;;;;-0.02;86.77;94859.20;1641121;87;21058;-69
2022/11/22 03:11:25;;;;;;;4.67;1.67;;;;;;;-0.12;86.69;94858.24;1641292;87;21030;-68
2022/11/22 03:13:52;;;;;;;2.73;1.90;;;;;;;-0.10;86.94;94860.42;1641091;87;21081;-68
2022/11/22 03:16:18;;;;;;;4.10;1.60;;;;;;;-0.05;87.06;94856.16;1641365;87;21018;-68
2022/11/22 03:18:45;;;;;;;2.00;1.50;;;;;;;-0.18;86.08;94867.23;1641423;87;21504;-68
2022/11/22 03:21:12;;;;;;;2.10;1.10;;;;;;;-0.19;86.46;94860.32;1641242;87;21085;-68
2022/11/22 03:23:39;;;;;;;2.70;1.40;;;;;;;-0.24;86.41;94864.16;1641594;87;21054;-69
2022/11/22 03:26:10;;;;;;;2.43;1.47;;;;;;;-0.24;86.34;94863.29;1641318;87;21094;-68
2022/11/22 03:28:37;;;;;;;2.27;1.30;;;;;;;-0.28;86.30;94865.39;1641347;87;21521;-68
2022/11/22 03:31:06;;;;;;;2.83;1.53;;;;;;;-0.25;86.66;94865.02;1641141;87;21026;-69
2022/11/22 03:33:34;;;;;;;2.47;1.30;;;;;;;-0.24;86.42;94867.18;1641523;87;21155;-69
2022/11/22 03:36:01;;;;;;;2.60;1.40;;;;;;;-0.28;86.53;94864.09;1641235;87;21539;-69
2022/11/22 03:38:28;;;;;;;2.90;2.20;;;;;;;-0.21;87.06;94864.61;1641330;87;21082;-69
2022/11/22 03:40:54;;;;;;;3.57;2.13;;;;;;;-0.18;87.06;94867.23;1641230;87;21532;-69
2022/11/22 03:43:22;;;;;;;3.57;2.00;;;;;;;-0.15;87.07;94872.88;1639145;87;21034;-69
2022/11/22 03:45:49;;;;;;;3.93;2.20;;;;;;;-0.17;86.52;94870.72;1638534;88;21026;-69
2022/11/22 03:48:15;;;;;;;2.47;1.80;;;;;;;-0.25;86.33;94873.23;1638804;88;21580;-69
2022/11/22 03:50:42;;;;;;;3.53;2.17;;;;;;;-0.19;87.09;94871.98;1638504;87;21093;-69
2022/11/22 03:53:09;;;;;;;8.50;4.80;;;;;;;-0.21;86.36;94872.39;1638688;87;21046;-68
2022/11/22 03:55:36;;;;;;;10.53;4.37;;;;;;;-0.18;86.52;94868.53;1638782;87;21540;-68
2022/11/22 03:58:04;;;;;;;10.57;4.33;;;;;;;-0.17;86.15;94866.40;1638735;88;21102;-68
2022/11/22 04:00:32;;;;;;;5.90;2.80;;;;;;;-0.18;86.45;94867.23;1638561;87;21062;-68
2022/11/22 04:02:58;;;;;;;9.67;4.23;;;;;;;-0.19;87.11;94866.80;1638854;87;21066;-68
2022/11/22 04:05:25;;;;;;;9.20;3.10;;;;;;;-0.19;87.37;94868.09;1638917;87;21026;-68
2022/11/22 04:07:58;;;;;;;8.53;3.63;;;;;;;-0.21;87.50;94871.09;1638968;87;21058;-68
2022/11/22 04:10:25;;;;;;;3.65;1.87;;;;;;;-0.17;87.59;94867.70;1639062;87;21029;-69
2022/11/22 04:12:58;;;;;;;4.10;1.90;;;;;;;-0.22;86.89;94870.66;1638830;87;21073;-68
2022/11/22 04:15:26;;;;;;;3.93;1.30;;;;;;;-0.23;87.38;94875.39;1639191;87;21045;-68
2022/11/22 04:17:53;;;;;;;3.27;1.87;;;;;;;-0.18;87.90;94872.84;1638801;87;21049;-69
2022/11/22 04:23:18;;;;;;;5.33;3.17;;;;;;;-0.16;87.31;94878.49;1638532;88;21046;-69
2022/11/22 04:25:49;;;;;;;4.93;2.87;;;;;;;-0.17;87.50;94885.84;1639023;87;21022;-69
2022/11/22 04:28:21;;;;;;;10.23;3.87;;;;;;;-0.15;87.32;94883.25;1638876;88;21050;-69
2022/11/22 04:33:35;;;;;;;5.57;3.10;;;;;;;-0.13;87.18;94875.06;1638978;87;21527;-69
2022/11/22 04:36:03;;;;;;;4.53;2.27;;;;;;;-0.03;87.79;94876.90;1638851;87;21683;-68
2022/11/22 04:38:29;;;;;;;2.53;1.60;;;;;;;-0.05;87.30;94879.89;1638514;87;21102;-68
2022/11/22 04:40:56;;;;;;;3.43;2.00;;;;;;;0.05;88.04;94878.27;1638644;88;21140;-68
2022/11/22 04:46:13;;;;;;;9.20;5.37;;;;;;;0.05;87.82;94871.79;1641546;87;21022;-70
2022/11/22 04:48:40;;;;;;;10.63;5.50;;;;;;;0.04;87.30;94879.14;1641520;87;21046;-68
2022/11/22 04:53:55;;;;;;;6.70;3.90;;;;;;;0.00;87.44;94882.14;1625822;87;21078;-70
2022/11/22 04:56:22;;;;;;;5.70;3.53;;;;;;;-0.02;87.42;94882.55;1641523;87;21088;-70
2022/11/22 04:58:50;;;;;;;1.67;1.30;;;;;;;-0.05;87.17;94884.68;1641270;87;21087;-70
2022/11/22 05:01:17;;;;;;;3.23;1.87;;;;;;;-0.06;87.20;94880.33;1641395;87;21026;-70
2022/11/22 05:03:43;;;;;;;7.47;3.03;;;;;;;-0.07;87.29;94883.79;1641363;87;21102;-70
2022/11/22 05:06:12;;;;;;;6.63;3.47;;;;;;;-0.08;87.08;94880.73;1641357;87;21018;-70
2022/11/22 05:08:39;;;;;;;4.67;2.83;;;;;;;-0.06;87.58;94888.55;1641510;87;21112;-71
2022/11/22 05:11:06;;;;;;;3.77;2.13;;;;;;;-0.03;87.56;94879.06;1641509;87;21025;-71
2022/11/22 05:13:36;;;;;;;5.97;2.93;;;;;;;-0.15;86.13;94884.55;1641523;87;21144;-71
2022/11/22 05:16:05;;;;;;;5.63;2.10;;;;;;;-0.36;85.75;94887.34;1641347;87;21040;-71
2022/11/22 05:18:32;;;;;;;2.50;1.80;;;;;;;-0.37;86.45;94893.39;1641407;87;21061;-71
2022/11/22 05:21:07;;;;;;;3.80;2.67;;;;;;;-0.42;86.56;94893.77;1641276;87;20994;-71
2022/11/22 05:23:53;;;;;;;4.93;3.17;;;;;;;-0.46;86.69;94892.83;1641545;87;21058;-70
2022/11/22 05:26:27;;;;;;;3.07;1.70;;;;;;;-0.52;86.89;94894.50;1641480;87;21022;-71
2022/11/22 05:28:56;;;;;;;4.40;1.80;;;;;;;-0.52;87.38;94900.55;1641068;87;21078;-71
2022/11/22 05:31:26;;;;;;;2.03;1.60;;;;;;;-0.51;87.32;94893.20;1641331;87;21002;-71
2022/11/22 05:33:55;;;;;;;3.97;1.80;;;;;;;-0.47;87.15;94899.31;1641330;87;21093;-71
2022/11/22 05:36:23;;;;;;;4.13;2.00;;;;;;;-0.45;87.15;94901.08;1641534;87;21021;-71
2022/11/22 05:38:50;;;;;;;2.90;1.60;;;;;;;-0.44;87.28;94901.50;1641475;87;21053;-71
2022/11/22 05:41:17;;;;;;;1.20;1.00;;;;;;;-0.38;87.62;94912.80;1641365;87;21492;-71
2022/11/22 05:43:44;;;;;;;1.83;1.30;;;;;;;-0.44;86.69;94901.50;1641284;87;21034;-71
2022/11/22 05:46:18;;;;;;;3.33;1.17;;;;;;;-0.46;86.82;94903.20;1641352;87;21041;-72
2022/11/22 05:48:47;;;;;;;2.80;1.23;;;;;;;-0.40;87.46;94902.83;1641436;87;21066;-71
2022/11/22 05:51:17;;;;;;;2.37;1.40;;;;;;;-0.35;87.38;94899.87;1641739;87;21050;-71
2022/11/22 05:53:45;;;;;;;3.30;1.30;;;;;;;-0.32;87.32;94900.80;1641496;87;21491;-70
2022/11/22 05:56:16;;;;;;;3.07;1.33;;;;;;;-0.33;86.87;94900.77;1640828;87;21050;-70
2022/11/22 05:58:42;;;;;;;3.00;2.03;;;;;;;-0.34;86.78;94896.02;1641484;87;21057;-77
2022/11/22 06:01:17;;;;;;;3.43;1.70;;;;;;;-0.36;86.18;94902.89;1640514;87;21129;-81
2022/11/22 06:03:44;;;;;;;1.57;0.70;;;;;;;-0.40;86.50;94905.02;1638311;87;21057;-73
2022/11/22 06:06:11;;;;;;;1.83;1.13;;;;;;;-0.41;86.60;94913.62;1640856;87;21104;-75
2022/11/22 06:08:40;;;;;;;4.77;1.00;;;;;;;-0.47;86.15;94904.06;1641150;87;21038;-76
2022/11/22 06:11:17;;;;;;;1.60;0.90;;;;;;;-0.52;86.09;94904.87;1641374;87;21042;-73
2022/11/22 06:13:46;;;;;;;2.10;1.00;;;;;;;-0.55;86.25;94910.88;1641513;87;21070;-77
2022/11/22 06:16:14;;;;;;;2.80;1.00;;;;;;;-0.58;86.13;94910.84;1640682;87;21088;-79
2022/11/22 06:18:41;;;;;;;1.47;1.10;;;;;;;-0.64;85.89;94918.52;1641039;87;21158;-74
2022/11/22 06:21:12;;;;;;;4.33;3.03;;;;;;;-0.63;86.42;94919.39;1641446;87;21585;-78
2022/11/22 06:23:38;;;;;;;4.77;2.03;;;;;;;-0.59;86.87;94911.67;1641422;87;21034;-71
2022/11/22 06:26:10;;;;;;;3.40;2.00;;;;;;;-0.50;86.94;94913.53;1641367;87;21547;-72
2022/11/22 06:28:37;;;;;;;4.73;2.13;;;;;;;-0.45;86.54;94914.47;1641048;87;21033;-68
2022/11/22 06:31:12;;;;;;;2.40;1.60;;;;;;;-0.40;86.65;94910.61;1641081;87;21532;-70
2022/11/22 06:33:40;;;;;;;118.17;54.20;;;;;;;-0.44;86.07;94907.98;1641033;87;21539;-67
2022/11/22 06:36:11;;;;;;;51.77;25.37;;;;;;;-0.48;86.04;94914.00;1641377;87;21018;-69
2022/11/22 06:38:40;;;;;;;117.23;50.83;;;;;;;-0.47;86.99;94910.98;1641169;87;21062;-70
2022/11/22 06:41:10;;;;;;;35.43;17.40;;;;;;;-0.44;87.12;94912.30;1640957;87;21100;-69
2022/11/22 06:43:38;;;;;;;5.30;3.70;;;;;;;-0.31;87.42;94912.89;1637059;87;21141;-70
2022/11/22 06:46:06;;;;;;;4.90;2.17;;;;;;;-0.26;87.05;94913.81;1634839;88;21050;-71
2022/11/22 06:48:36;;;;;;;10.20;6.20;;;;;;;-0.19;86.84;94916.50;1634764;88;21074;-74
2022/11/22 06:51:07;;;;;;;6.33;3.83;;;;;;;-0.24;86.32;94910.82;1635041;88;21066;-72
2022/11/22 06:53:35;;;;;;;13.20;7.93;;;;;;;-0.16;86.91;94916.09;1634810;88;21074;-70
2022/11/22 06:56:07;;;;;;;12.97;8.43;;;;;;;-0.16;86.66;94905.72;1635163;88;21050;-72
2022/11/22 06:58:34;;;;;;;11.63;7.60;;;;;;;-0.09;87.09;94907.53;1635299;88;21517;-67
2022/11/22 07:01:10;;;;;;;8.40;5.63;;;;;;;0.02;87.44;94913.27;1635186;87;21049;-69
2022/11/22 07:03:39;;;;;;;6.63;4.00;;;;;;;0.05;87.08;94905.11;1633057;88;21110;-69
2022/11/22 07:06:08;;;;;;;5.77;4.00;;;;;;;0.04;86.67;94907.23;1634717;88;21133;-68
2022/11/22 07:08:35;;;;;;;6.57;4.20;;;;;;;-0.01;86.39;94907.61;1635280;88;21086;-69
2022/11/22 07:11:04;;;;;;;6.17;3.50;;;;;;;0.08;86.93;94910.75;1635274;88;21054;-68
2022/11/22 07:13:31;;;;;;;7.30;3.90;;;;;;;0.10;86.53;94914.20;1635279;87;21050;-70
2022/11/22 07:16:00;;;;;;;8.70;5.63;;;;;;;0.19;87.11;94911.72;1634957;87;21014;-70
2022/11/22 07:18:28;;;;;;;12.90;7.27;;;;;;;0.29;87.61;94907.06;1634437;87;21081;-67
2022/11/22 07:21:08;;;;;;;10.87;7.00;;;;;;;0.49;87.75;94912.44;1634571;88;21062;-71
2022/11/22 07:23:34;;;;;;;9.93;6.60;;;;;;;0.68;87.85;94908.29;1610512;88;21073;-74
2022/11/22 07:26:01;;;;;;;8.90;5.67;;;;;;;0.81;87.51;94905.36;1634409;87;21069;-73
2022/11/22 07:28:27;;;;;;;13.10;7.83;;;;;;;0.91;86.94;94900.67;1635092;88;21058;-76
2022/11/22 07:31:00;;;;;;;10.57;7.40;;;;;;;1.01;86.80;94902.47;1634971;88;21488;-81
2022/11/22 07:33:28;;;;;;;16.48;10.63;;;;;;;1.11;86.25;94906.41;1635139;88;22271;-76
2022/11/22 07:35:54;;;;;;;13.60;8.10;;;;;;;1.10;85.66;94904.69;1634740;87;21100;-78
2022/11/22 07:38:21;;;;;;;26.40;16.10;;;;;;;1.06;85.67;94912.47;1634802;87;21603;-73
2022/11/22 07:40:48;;;;;;;14.87;8.97;;;;;;;1.18;86.25;94915.55;1632232;87;21058;-73
2022/11/22 07:43:15;;;;;;;12.23;8.70;;;;;;;1.20;85.59;94912.54;1635173;87;21581;-73
2022/11/22 07:45:41;;;;;;;10.93;7.97;;;;;;;1.24;85.80;94917.34;1635263;88;21058;-77
2022/11/22 07:48:09;;;;;;;14.33;10.17;;;;;;;1.27;85.61;94907.83;1635009;87;21018;-74
2022/11/22 07:50:35;;;;;;;10.83;8.03;;;;;;;1.32;85.82;94906.56;1635095;87;21527;-74
2022/11/22 07:53:02;;;;;;;9.30;6.73;;;;;;;1.42;85.94;94900.98;1634844;87;21046;-75
2022/11/22 07:55:30;;;;;;;11.40;6.77;;;;;;;1.50;85.81;94904.05;1634880;88;22254;-77
2022/11/22 07:58:00;;;;;;;10.60;7.07;;;;;;;1.59;86.26;94905.84;1634386;88;21067;-76
2022/11/22 08:00:27;;;;;;;8.47;6.67;;;;;;;1.67;85.93;94897.64;1635205;88;21050;-78
2022/11/22 08:02:54;;;;;;;8.00;5.63;;;;;;;1.77;85.65;94899.84;1634688;88;21612;-77
2022/11/22 08:05:21;;;;;;;8.70;5.63;;;;;;;1.83;85.22;94903.76;1635250;88;21054;-76
2022/11/22 08:07:50;;;;;;;29.17;22.63;;;;;;;1.80;84.78;94899.85;1635043;88;21090;-81
2022/11/22 08:10:18;;;;;;;19.97;15.60;;;;;;;1.82;85.13;94902.03;1635012;88;21042;-75
2022/11/22 08:12:45;;;;;;;14.03;8.67;;;;;;;1.95;85.49;94898.60;1670061;86;21029;-69
2022/11/22 08:15:14;;;;;;;9.03;6.57;;;;;;;2.20;85.67;94899.12;1669902;86;21046;-67
2022/11/22 08:17:41;;;;;;;7.00;3.60;;;;;;;2.43;85.63;94893.52;1669751;86;21006;-67
2022/11/22 08:20:09;;;;;;;11.87;6.93;;;;;;;2.68;84.94;94893.55;1670337;86;21070;-70
2022/11/22 08:22:39;;;;;;;11.70;8.53;;;;;;;2.91;83.58;94897.00;1669745;86;21057;-67
2022/11/22 08:25:11;;;;;;;19.50;9.50;;;;;;;3.08;83.24;94892.23;1669622;86;21094;-72
2022/11/22 08:27:36;;;;;;;15.33;9.63;;;;;;;3.28;82.21;94890.45;1670344;86;21505;-67
2022/11/22 08:30:04;;;;;;;6.03;5.00;;;;;;;3.52;82.81;94892.56;1670102;86;21034;-68
2022/11/22 08:32:30;;;;;;;7.93;5.87;;;;;;;3.74;76.12;94886.41;1635407;87;21018;-69
2022/11/22 08:34:56;;;;;;;6.80;5.07;;;;;;;3.86;75.85;94887.67;1616762;89;21014;-71
2022/11/22 08:37:23;;;;;;;5.70;3.97;;;;;;;4.01;75.83;94888.48;1667267;86;21013;-69
2022/11/22 08:39:50;;;;;;;4.17;2.57;;;;;;;4.17;77.85;94887.97;1635400;87;21079;-65
2022/11/22 08:42:17;;;;;;;9.67;7.20;;;;;;;4.34;78.29;94893.96;1616753;89;21045;-69
2022/11/22 08:44:43;;;;;;;3.87;3.33;;;;;;;4.47;78.28;94886.91;1667208;86;21026;-66
2022/11/22 08:47:10;;;;;;;3.23;1.40;;;;;;;4.54;77.65;94882.95;1635210;88;21441;-67
2022/11/22 08:49:36;;;;;;;1.90;1.13;;;;;;;4.64;76.41;94880.28;1616175;89;21112;-67
2022/11/22 08:52:03;;;;;;;2.53;1.50;;;;;;;4.70;76.36;94872.37;1667373;86;21101;-71
2022/11/22 08:54:30;;;;;;;2.07;1.00;;;;;;;4.82;76.27;94866.20;1635069;87;20991;-74
2022/11/22 08:56:56;;;;;;;1.97;1.40;;;;;;;4.91;75.38;94864.80;1616863;89;21061;-73
2022/11/22 08:59:23;;;;;;;1.17;0.80;;;;;;;4.99;75.60;94861.70;1667239;86;21026;-69
2022/11/22 09:01:50;;;;;;;1.93;1.00;;;;;;;5.09;75.69;94858.13;1645004;86;20955;-67
2022/11/22 09:04:17;;;;;;;2.43;1.33;;;;;;;5.20;74.98;94857.56;1678122;85;21057;-72
2022/11/22 09:06:44;;;;;;;1.50;1.07;;;;;;;5.29;74.41;94852.70;1672940;85;21520;-69
2022/11/22 09:09:10;;;;;;;3.17;1.30;;;;;;;5.37;73.22;94846.08;1675544;85;21083;-70
2022/11/22 09:11:37;;;;;;;1.70;1.20;;;;;;;5.42;73.82;94848.20;1682338;85;21043;-70
2022/11/22 09:14:04;;;;;;;2.00;1.30;;;;;;;5.53;74.53;94841.09;1692961;85;21565;-66
2022/11/22 09:16:30;;;;;;;3.07;1.60;;;;;;;5.67;72.21;94841.36;1693278;85;21004;-68
2022/11/22 09:18:57;;;;;;;2.83;1.70;;;;;;;5.77;72.61;94840.36;1693404;85;21067;-65
2022/11/22 09:21:24;;;;;;;3.60;2.73;;;;;;;5.84;71.31;94840.72;1693360;85;21076;-70
2022/11/22 09:23:52;;;;;;;3.40;1.60;;;;;;;5.88;71.22;94836.33;1692692;85;21078;-66
2022/11/22 09:26:23;;;;;;;3.77;3.07;;;;;;;5.99;71.74;94842.31;1693270;85;21016;-69
2022/11/22 09:28:51;;;;;;;2.37;1.57;;;;;;;6.10;71.44;94826.03;1693465;85;21012;-68
2022/11/22 09:31:21;;;;;;;5.13;2.27;;;;;;;6.21;71.59;94824.11;1693218;85;21039;-68
2022/11/22 09:33:48;;;;;;;3.37;1.90;;;;;;;6.31;70.95;94806.52;1693224;84;21067;-67
2022/11/22 09:36:18;;;;;;;1.33;1.20;;;;;;;6.44;69.55;94799.33;1693267;85;21104;-74
2022/11/22 09:38:45;;;;;;;2.30;1.50;;;;;;;6.49;68.56;94795.74;1692945;85;21032;-68
2022/11/22 09:41:23;;;;;;;3.60;1.30;;;;;;;6.58;67.71;94787.34;1692926;85;20988;-68
2022/11/22 09:44:13;;;;;;;1.93;1.20;;;;;;;6.74;69.19;94784.01;1683130;85;21053;-70
2022/11/22 09:47:12;;;;;;;2.67;1.50;;;;;;;7.08;66.57;94777.71;1650174;87;21118;-71
2022/11/22 09:50:02;;;;;;;1.80;1.40;;;;;;;7.51;66.87;94774.27;1646666;87;21544;-73
2022/11/22 09:52:40;;;;;;;3.17;1.40;;;;;;;7.92;62.70;94769.95;1659872;86;21567;-69
2022/11/22 09:55:12;;;;;;;3.95;1.45;;;;;;;8.24;62.30;94763.98;1659270;86;21086;-72
2022/11/22 09:57:52;;;;;;;5.58;1.35;;;;;;;8.69;62.08;94758.54;1658929;86;21038;-69
2022/11/22 10:00:25;;;;;;;2.70;1.65;;;;;;;9.15;59.29;94752.55;1659769;86;21019;-76
2022/11/22 10:02:57;;;;;;;2.70;1.70;;;;;;;9.52;61.66;94745.41;1659763;86;21041;-76
2022/11/22 10:05:28;;;;;;;3.15;1.77;;;;;;;9.87;59.79;94743.96;1659767;86;21081;-70
2022/11/22 10:08:09;;;;;;;2.22;1.70;;;;;;;10.10;57.43;94738.00;1659921;86;21039;-74
2022/11/22 10:10:43;;;;;;;2.37;1.60;;;;;;;10.40;57.35;94738.86;1654617;86;21134;-74
2022/11/22 10:13:37;;;;;;;3.87;2.00;;;;;;;10.70;55.45;94731.73;1659819;86;21097;-73
2022/11/22 10:16:15;;;;;;;;;;;;;;;10.98;55.09;94722.43;1662287;86;21117;-73
2022/11/22 10:19:13;;;;;;;2.12;1.22;;;;;;;11.17;51.90;94730.59;1658598;86;20114;-73
2022/11/22 10:21:41;;;;;;;3.10;1.52;;;;;;;11.37;52.98;94721.12;1659802;86;21031;-74
2022/11/22 10:24:15;;;;;;;1.98;1.60;;;;;;;11.61;49.24;94719.35;1659415;86;20998;-74
2022/11/22 10:26:42;;;;;;;1.75;1.30;;;;;;;11.57;47.60;94711.16;1659808;86;21038;-73
2022/11/22 10:29:35;;;;;;;1.50;1.22;;;;;;;11.42;48.44;94713.89;1658718;86;21077;-80
2022/11/22 10:32:22;;;;;;;1.92;1.42;;;;;;;11.72;49.11;94713.66;1659118;86;21090;-76
2022/11/22 10:35:13;;;;;;;1.82;1.20;;;;;;;11.90;47.82;94699.34;1659795;86;21043;-77
2022/11/22 10:38:27;;;;;;;2.25;1.50;;;;;;;12.20;46.68;94700.41;1659210;86;21123;-81
2022/11/22 10:41:17;;;;;;;2.27;1.30;;;;;;;12.33;45.79;94700.78;1658746;86;20998;-77
2022/11/22 10:44:18;;;;;;;2.90;1.60;;;;;;;12.69;47.81;94697.10;1656338;86;21083;-80
2022/11/22 10:47:06;;;;;;;2.10;1.35;;;;;;;13.09;48.61;94692.79;1653549;86;21635;-75
2022/11/22 10:49:57;;;;;;;1.55;1.20;;;;;;;13.13;47.13;94692.21;1653420;87;21035;-71
2022/11/22 10:52:54;;;;;;;4.40;1.70;;;;;;;13.37;47.04;94692.48;1649988;86;21027;-75
2022/11/22 10:55:49;;;;;;;1.82;1.45;;;;;;;13.16;45.69;94689.42;1673770;86;21023;-72
2022/11/22 10:58:58;;;;;;;2.17;1.92;;;;;;;13.35;47.26;94693.48;1707916;84;21105;-73
2022/11/22 11:01:51;;;;;;;2.55;2.30;;;;;;;13.40;46.37;94691.48;1708018;84;21031;-73
2022/11/22 11:04:19;;;;;;;3.15;2.20;;;;;;;13.75;46.72;94691.23;1708187;84;21525;-72
2022/11/22 11:06:59;;;;;;;3.37;2.60;;;;;;;13.75;46.72;94691.23;1707983;84;21058;-76
2022/11/22 11:09:51;;;;;;;7.50;2.60;;;;;;;14.03;45.58;94681.54;1708174;84;21027;-75
2022/11/22 11:12:26;;;;;;;6.20;2.55;;;;;;;14.36;45.37;94675.56;1708210;84;21521;-74
2022/11/22 11:15:00;;;;;;;3.60;2.50;;;;;;;14.67;46.16;94668.35;1708245;84;21046;-74
2022/11/22 11:17:32;;;;;;;2.60;2.00;;;;;;;14.74;43.20;94666.27;1708016;84;21023;-75
2022/11/22 11:20:03;;;;;;;5.33;2.37;;;;;;;14.96;43.46;94667.83;1707983;84;22231;-75
2022/11/22 11:22:33;;;;;;;3.47;2.08;;;;;;;14.95;41.07;94670.96;1708351;84;21089;-75
2022/11/22 11:25:39;;;;;;;3.55;2.70;;;;;;;14.83;40.76;94669.77;1708105;84;21027;-74
2022/11/22 11:28:07;;;;;;;4.85;2.92;;;;;;;15.07;40.54;94661.05;1708215;84;21191;-75
2022/11/22 11:30:50;;;;;;;4.15;1.80;;;;;;;15.17;41.09;94662.77;1708266;84;21023;-75
2022/11/22 11:33:25;;;;;;;2.35;1.50;;;;;;;15.29;40.43;94663.44;1708134;84;21514;-75
2022/11/22 11:36:03;;;;;;;1.85;1.67;;;;;;;15.22;40.10;94657.19;1708151;84;21094;-74
2022/11/22 11:38:34;;;;;;;2.90;1.60;;;;;;;15.09;39.02;94653.86;1689120;84;21074;-74
2022/11/22 11:41:28;;;;;;;1.90;1.67;;;;;;;15.20;38.54;94658.61;1708214;84;21482;-74
2022/11/22 11:44:01;;;;;;;2.35;1.45;;;;;;;15.33;39.39;94665.48;1707865;84;21071;-75
2022/11/22 11:46:43;;;;;;;2.37;1.32;;;;;;;15.27;40.92;94657.81;1708184;84;21063;-74
2022/11/22 11:49:17;;;;;;;2.67;1.45;;;;;;;15.57;40.49;94654.02;1708187;84;21079;-75
2022/11/22 11:51:56;;;;;;;1.40;1.30;;;;;;;16.05;40.08;94655.03;1708118;84;21043;-75
2022/11/22 11:57:42;;;;;;;1.72;1.47;;;;;;;16.27;35.37;94645.83;1679126;84;21519;-75
2022/11/22 12:00:21;;;;;;;1.30;1.20;;;;;;;16.21;36.52;94649.23;1674760;85;21045;-75
2022/11/22 12:02:50;;;;;;;0.98;0.90;;;;;;;16.34;36.82;94642.74;1674665;85;21017;-75
2022/11/22 12:05:21;;;;;;;1.02;0.85;;;;;;;16.16;36.17;94637.98;1674536;84;21566;-76
2022/11/22 12:07:48;;;;;;;2.25;2.12;;;;;;;16.18;34.43;94629.92;1673454;85;21029;-75